createdAt,value
2023-04-28T00:00:55.210Z,10.80
2023-04-28T00:01:55.105Z,10.30
2023-04-28T00:02:55.746Z,10.40
2023-04-28T00:03:55.205Z,10.70
2023-04-28T00:04:55.152Z,10.40
2023-04-28T00:05:55.251Z,10.20
2023-04-28T00:06:55.056Z,10.10
2023-04-28T00:07:55.002Z,10.40
2023-04-28T00:08:54.992Z,10.30
2023-04-28T00:09:54.981Z,10.30
2023-04-28T00:10:54.972Z,10.50
2023-04-28T00:11:54.976Z,11.00
2023-04-28T00:12:54.949Z,10.70
2023-04-28T00:13:54.938Z,10.90
2023-04-28T00:14:54.927Z,10.90
2023-04-28T00:15:54.974Z,10.70
2023-04-28T00:16:55.080Z,10.70
2023-04-28T00:17:54.978Z,10.80
2023-04-28T00:18:54.883Z,11.20
2023-04-28T00:19:54.877Z,11.10
2023-04-28T00:20:54.863Z,10.80
2023-04-28T00:21:54.913Z,10.90
2023-04-28T00:22:54.842Z,11.00
2023-04-28T00:23:54.830Z,10.50
2023-04-28T00:24:54.818Z,10.90
2023-04-28T00:25:54.815Z,10.90
2023-04-28T00:26:54.820Z,11.00
2023-04-28T00:27:54.807Z,10.60
2023-04-28T00:28:54.774Z,10.70
2023-04-28T00:29:54.796Z,11.10
2023-04-28T00:30:54.758Z,11.10
2023-04-28T00:31:54.812Z,10.70
2023-04-28T00:32:54.759Z,10.50
2023-04-28T00:33:54.723Z,10.60
2023-04-28T00:34:54.714Z,10.70
2023-04-28T00:35:54.702Z,10.80
2023-04-28T00:36:54.714Z,11.10
2023-04-28T00:37:54.701Z,10.80
2023-04-28T00:38:54.673Z,10.40
2023-04-28T00:39:54.663Z,10.50
2023-04-28T00:40:54.644Z,11.00
2023-04-28T00:41:54.651Z,10.90
2023-04-28T00:42:54.625Z,11.30
2023-04-28T00:43:54.615Z,11.00
2023-04-28T00:44:54.604Z,10.80
2023-04-28T00:45:54.686Z,10.70
2023-04-28T00:46:54.609Z,10.90
2023-04-28T00:47:54.612Z,10.80
2023-04-28T00:48:54.560Z,11.00
2023-04-28T00:49:54.551Z,10.80
2023-04-28T00:50:54.538Z,10.90
2023-04-28T00:51:54.530Z,10.70
2023-04-28T00:52:54.541Z,10.80
2023-04-28T00:53:54.534Z,11.10
2023-04-28T00:54:54.497Z,11.20
2023-04-28T00:55:54.487Z,10.50
2023-04-28T00:56:54.472Z,10.80
2023-04-28T00:57:54.483Z,10.50
2023-04-28T00:58:54.455Z,11.00
2023-04-28T00:59:54.448Z,10.90
2023-04-28T01:00:54.459Z,11.20
2023-04-28T01:01:54.436Z,10.80
2023-04-28T01:02:54.514Z,10.70
2023-04-28T01:03:54.580Z,10.90
2023-04-28T01:04:54.388Z,10.80
2023-04-28T01:05:54.380Z,10.80
2023-04-28T01:06:54.414Z,10.90
2023-04-28T01:07:54.354Z,11.10
2023-04-28T01:08:54.356Z,11.20
2023-04-28T01:09:54.366Z,10.90
2023-04-28T01:10:54.325Z,10.90
2023-04-28T01:11:54.343Z,10.80
2023-04-28T01:12:54.301Z,10.70
2023-04-28T01:13:54.295Z,10.80
2023-04-28T01:14:54.281Z,10.90
2023-04-28T01:15:54.284Z,10.80
2023-04-28T01:16:54.354Z,11.00
2023-04-28T01:17:54.297Z,11.00
2023-04-28T01:18:54.235Z,11.30
2023-04-28T01:19:54.228Z,11.10
2023-04-28T01:20:54.221Z,11.20
2023-04-28T01:21:54.221Z,11.10
2023-04-28T01:22:54.198Z,11.00
2023-04-28T01:23:54.185Z,11.20
2023-04-28T01:24:54.174Z,11.20
2023-04-28T01:25:54.180Z,10.80
2023-04-28T01:26:54.173Z,11.10
2023-04-28T01:27:54.146Z,10.90
2023-04-28T01:28:54.127Z,11.30
2023-04-28T01:29:54.124Z,11.10
2023-04-28T01:30:54.110Z,11.00
2023-04-28T01:31:54.121Z,11.20
2023-04-28T01:32:54.133Z,11.20
2023-04-28T01:33:54.080Z,11.30
2023-04-28T01:34:54.068Z,11.10
2023-04-28T01:35:54.059Z,11.00
2023-04-28T01:36:54.060Z,11.00
2023-04-28T01:37:54.044Z,10.80
2023-04-28T01:38:54.024Z,10.80
2023-04-28T01:39:54.018Z,11.10
2023-04-28T01:40:53.999Z,11.00
2023-04-28T01:41:54.008Z,11.10
2023-04-28T01:42:53.990Z,11.10
2023-04-28T01:43:53.976Z,10.80
2023-04-28T01:44:53.955Z,10.90
2023-04-28T01:45:53.995Z,11.00
2023-04-28T01:46:53.960Z,11.10
2023-04-28T01:47:53.982Z,11.00
2023-04-28T01:48:53.923Z,11.00
2023-04-28T01:49:53.911Z,10.90
2023-04-28T01:50:53.901Z,11.00
2023-04-28T01:51:53.887Z,11.10
2023-04-28T01:52:53.888Z,11.00
2023-04-28T01:53:53.862Z,11.10
2023-04-28T01:54:53.862Z,10.90
2023-04-28T01:55:53.837Z,11.00
2023-04-28T01:56:53.859Z,11.20
2023-04-28T01:57:53.838Z,11.10
2023-04-28T01:58:53.813Z,11.50
2023-04-28T01:59:53.795Z,11.10
2023-04-28T02:00:53.788Z,11.00
2023-04-28T02:01:53.821Z,11.30
2023-04-28T02:02:53.906Z,11.10
2023-04-28T02:03:53.913Z,11.30
2023-04-28T02:04:53.838Z,11.50
2023-04-28T02:05:53.733Z,11.40
2023-04-28T02:06:53.752Z,11.30
2023-04-28T02:07:53.712Z,11.40
2023-04-28T02:08:53.698Z,11.30
2023-04-28T02:09:53.693Z,11.40
2023-04-28T02:10:53.679Z,11.90
2023-04-28T02:11:53.708Z,11.80
2023-04-28T02:12:53.658Z,11.50
2023-04-28T02:13:53.667Z,11.30
2023-04-28T02:14:53.636Z,12.40
2023-04-28T02:15:53.639Z,11.40
2023-04-28T02:16:53.634Z,11.50
2023-04-28T02:17:53.685Z,11.40
2023-04-28T02:18:53.618Z,11.40
2023-04-28T02:19:53.582Z,11.50
2023-04-28T02:20:53.569Z,11.90
2023-04-28T02:21:53.608Z,12.70
2023-04-28T02:22:53.548Z,11.50
2023-04-28T02:23:53.548Z,11.80
2023-04-28T02:24:53.526Z,13.50
2023-04-28T02:25:53.516Z,11.80
2023-04-28T02:26:53.522Z,11.90
2023-04-28T02:27:53.497Z,12.70
2023-04-28T02:28:53.486Z,11.90
2023-04-28T02:29:53.505Z,11.80
2023-04-28T02:30:53.468Z,11.70
2023-04-28T02:31:53.563Z,11.80
2023-04-28T02:32:53.512Z,12.00
2023-04-28T02:33:53.432Z,13.70
2023-04-28T02:34:53.418Z,11.70
2023-04-28T02:35:53.413Z,11.90
2023-04-28T02:36:53.404Z,13.00
2023-04-28T02:37:53.407Z,11.80
2023-04-28T02:38:53.375Z,12.10
2023-04-28T02:39:53.397Z,12.30
2023-04-28T02:40:53.353Z,12.70
2023-04-28T02:41:53.365Z,12.20
2023-04-28T02:42:53.354Z,12.40
2023-04-28T02:43:53.326Z,11.90
2023-04-28T02:44:53.319Z,12.30
2023-04-28T02:45:53.324Z,14.30
2023-04-28T02:46:53.349Z,12.00
2023-04-28T02:47:53.368Z,13.40
2023-04-28T02:48:53.271Z,12.30
2023-04-28T02:49:53.259Z,12.60
2023-04-28T02:50:53.251Z,12.30
2023-04-28T02:51:53.239Z,12.40
2023-04-28T02:52:53.244Z,12.60
2023-04-28T02:53:53.221Z,12.70
2023-04-28T02:54:53.206Z,13.10
2023-04-28T02:55:53.204Z,13.00
2023-04-28T02:56:53.204Z,12.90
2023-04-28T02:57:53.178Z,12.40
2023-04-28T02:58:53.173Z,12.20
2023-04-28T02:59:53.180Z,11.90
2023-04-28T03:00:53.217Z,11.90
2023-04-28T03:01:53.250Z,12.60
2023-04-28T03:02:53.173Z,12.30
2023-04-28T03:03:53.366Z,13.10
2023-04-28T03:04:53.157Z,13.00
2023-04-28T03:05:53.094Z,12.50
2023-04-28T03:06:53.107Z,12.20
2023-04-28T03:07:53.068Z,11.80
2023-04-28T03:08:53.064Z,11.90
2023-04-28T03:09:53.048Z,11.90
2023-04-28T03:10:53.034Z,11.80
2023-04-28T03:11:53.026Z,12.00
2023-04-28T03:12:53.034Z,12.00
2023-04-28T03:13:53.003Z,12.00
2023-04-28T03:14:52.994Z,12.70
2023-04-28T03:15:53.071Z,11.90
2023-04-28T03:16:52.988Z,13.90
2023-04-28T03:17:52.991Z,11.80
2023-04-28T03:18:52.954Z,12.30
2023-04-28T03:19:52.939Z,12.70
2023-04-28T03:20:52.930Z,12.30
2023-04-28T03:21:52.936Z,12.40
2023-04-28T03:22:52.901Z,13.50
2023-04-28T03:23:52.898Z,12.60
2023-04-28T03:24:52.891Z,12.60
2023-04-28T03:25:52.877Z,13.40
2023-04-28T03:26:52.878Z,12.90
2023-04-28T03:27:52.854Z,13.40
2023-04-28T03:28:52.844Z,12.30
2023-04-28T03:29:52.834Z,12.80
2023-04-28T03:30:52.821Z,12.50
2023-04-28T03:31:52.936Z,13.60
2023-04-28T03:32:52.874Z,12.10
2023-04-28T03:33:52.808Z,13.00
2023-04-28T03:34:52.804Z,14.50
2023-04-28T03:35:52.767Z,13.00
2023-04-28T03:36:52.784Z,12.70
2023-04-28T03:37:52.761Z,13.20
2023-04-28T03:38:52.737Z,13.60
2023-04-28T03:39:52.726Z,11.90
2023-04-28T03:40:52.714Z,12.60
2023-04-28T03:41:52.710Z,12.30
2023-04-28T03:42:52.720Z,12.00
2023-04-28T03:43:52.686Z,12.50
2023-04-28T03:44:52.668Z,13.60
2023-04-28T03:45:52.715Z,12.40
2023-04-28T03:46:52.680Z,13.50
2023-04-28T03:47:52.668Z,13.20
2023-04-28T03:48:52.639Z,12.70
2023-04-28T03:49:52.648Z,12.80
2023-04-28T03:50:52.603Z,12.60
2023-04-28T03:51:52.618Z,12.70
2023-04-28T03:52:52.605Z,12.80
2023-04-28T03:53:52.574Z,13.50
2023-04-28T03:54:52.568Z,12.20
2023-04-28T03:55:52.554Z,15.10
2023-04-28T03:56:52.540Z,13.20
2023-04-28T03:57:52.545Z,12.10
2023-04-28T03:58:52.525Z,13.80
2023-04-28T03:59:52.520Z,13.80
2023-04-28T04:00:52.517Z,12.60
2023-04-28T04:01:52.498Z,12.60
2023-04-28T04:02:52.678Z,13.00
2023-04-28T04:03:52.644Z,12.40
2023-04-28T04:04:52.674Z,12.80
2023-04-28T04:05:52.701Z,14.50
2023-04-28T04:06:52.464Z,13.00
2023-04-28T04:07:52.428Z,13.00
2023-04-28T04:08:52.414Z,13.30
2023-04-28T04:09:52.421Z,13.00
2023-04-28T04:10:52.394Z,12.80
2023-04-28T04:11:52.407Z,12.90
2023-04-28T04:12:52.372Z,13.10
2023-04-28T04:13:52.366Z,14.40
2023-04-28T04:14:52.353Z,12.50
2023-04-28T04:15:52.406Z,13.00
2023-04-28T04:16:52.338Z,12.70
2023-04-28T04:17:52.369Z,12.70
2023-04-28T04:18:52.308Z,12.60
2023-04-28T04:19:52.304Z,12.50
2023-04-28T04:20:52.284Z,12.70
2023-04-28T04:21:52.308Z,13.50
2023-04-28T04:22:52.281Z,13.70
2023-04-28T04:23:52.262Z,12.70
2023-04-28T04:24:52.243Z,14.40
2023-04-28T04:25:52.235Z,13.60
2023-04-28T04:26:52.237Z,13.90
2023-04-28T04:27:52.211Z,13.80
2023-04-28T04:28:52.201Z,12.60
2023-04-28T04:29:52.190Z,13.20
2023-04-28T04:30:52.235Z,13.70
2023-04-28T04:31:52.346Z,12.60
2023-04-28T04:32:52.183Z,12.30
2023-04-28T04:33:52.145Z,12.80
2023-04-28T04:34:52.134Z,13.30
2023-04-28T04:35:52.123Z,13.40
2023-04-28T04:36:52.148Z,13.00
2023-04-28T04:37:52.125Z,13.50
2023-04-28T04:38:54.368Z,13.30
2023-04-28T04:39:52.083Z,12.60
2023-04-28T04:40:52.074Z,13.90
2023-04-28T04:41:52.111Z,14.60
2023-04-28T04:42:52.052Z,12.60
2023-04-28T04:43:52.055Z,12.60
2023-04-28T04:44:52.030Z,13.60
2023-04-28T04:45:52.026Z,14.00
2023-04-28T04:46:59.127Z,13.50
2023-04-28T04:47:52.142Z,13.80
2023-04-28T04:48:51.994Z,12.70
2023-04-28T04:49:51.979Z,13.80
2023-04-28T04:50:51.984Z,14.10
2023-04-28T04:51:51.998Z,13.20
2023-04-28T04:52:51.945Z,13.20
2023-04-28T04:53:51.958Z,12.70
2023-04-28T04:54:51.924Z,12.80
2023-04-28T04:55:51.916Z,13.10
2023-04-28T04:56:51.924Z,12.90
2023-04-28T04:57:51.888Z,12.70
2023-04-28T04:58:51.881Z,13.50
2023-04-28T04:59:51.875Z,12.60
2023-04-28T05:00:51.862Z,13.60
2023-04-28T05:01:51.991Z,13.20
2023-04-28T05:02:52.017Z,13.30
2023-04-28T05:03:52.023Z,13.20
2023-04-28T05:04:52.082Z,13.00
2023-04-28T05:05:51.837Z,12.40
2023-04-28T05:06:51.815Z,13.20
2023-04-28T05:07:51.789Z,12.40
2023-04-28T05:08:51.775Z,13.40
2023-04-28T05:09:51.789Z,13.20
2023-04-28T05:10:51.763Z,12.60
2023-04-28T05:11:51.775Z,15.10
2023-04-28T05:12:51.741Z,11.90
2023-04-28T05:13:51.723Z,12.60
2023-04-28T05:14:51.711Z,14.20
2023-04-28T05:15:51.715Z,12.20
2023-04-28T05:16:51.923Z,11.80
2023-04-28T05:17:51.726Z,12.70
2023-04-28T05:18:51.680Z,12.40
2023-04-28T05:19:51.654Z,11.90
2023-04-28T05:20:51.671Z,12.50
2023-04-28T05:21:51.656Z,14.10
2023-04-28T05:22:51.637Z,12.30
2023-04-28T05:23:51.614Z,12.50
2023-04-28T05:24:51.608Z,14.40
2023-04-28T05:25:51.626Z,13.00
2023-04-28T05:26:51.648Z,12.20
2023-04-28T05:27:51.569Z,12.30
2023-04-28T05:28:51.585Z,12.00
2023-04-28T05:29:51.552Z,12.30
2023-04-28T05:30:51.539Z,12.10
2023-04-28T05:31:51.606Z,12.00
2023-04-28T05:32:51.581Z,12.80
2023-04-28T05:33:51.508Z,13.10
2023-04-28T05:34:51.512Z,12.20
2023-04-28T05:35:51.481Z,14.10
2023-04-28T05:36:51.492Z,12.80
2023-04-28T05:37:51.469Z,12.30
2023-04-28T05:38:51.456Z,13.10
2023-04-28T05:39:51.447Z,12.70
2023-04-28T05:40:51.457Z,12.40
2023-04-28T05:41:51.441Z,12.20
2023-04-28T05:42:51.412Z,12.60
2023-04-28T05:43:51.545Z,12.10
2023-04-28T05:44:51.386Z,12.40
2023-04-28T05:45:51.455Z,12.20
2023-04-28T05:46:51.469Z,12.40
2023-04-28T05:47:51.389Z,12.50
2023-04-28T05:48:51.348Z,13.30
2023-04-28T05:49:51.331Z,12.50
2023-04-28T05:50:51.317Z,11.90
2023-04-28T05:51:51.311Z,13.20
2023-04-28T05:52:51.335Z,12.70
2023-04-28T05:53:51.298Z,12.00
2023-04-28T05:54:51.275Z,12.90
2023-04-28T05:55:51.264Z,12.40
2023-04-28T05:56:51.256Z,12.60
2023-04-28T05:57:53.346Z,13.20
2023-04-28T05:58:51.235Z,12.10
2023-04-28T05:59:51.223Z,12.30
2023-04-28T06:00:51.211Z,12.80
2023-04-28T06:01:51.209Z,13.30
2023-04-28T06:02:51.458Z,12.30
2023-04-28T06:03:51.363Z,11.90
2023-04-28T06:04:51.458Z,12.10
2023-04-28T06:05:51.208Z,12.30
2023-04-28T06:06:51.161Z,13.20
2023-04-28T06:07:51.967Z,12.90
2023-04-28T06:08:51.129Z,13.80
2023-04-28T06:09:51.120Z,11.90
2023-04-28T06:10:51.109Z,11.90
2023-04-28T06:11:51.100Z,13.40
2023-04-28T06:12:51.106Z,11.90
2023-04-28T06:13:51.097Z,12.60
2023-04-28T06:14:51.059Z,13.80
2023-04-28T06:15:51.059Z,12.40
2023-04-28T06:16:51.074Z,13.10
2023-04-28T06:17:51.078Z,14.00
2023-04-28T06:18:51.024Z,13.20
2023-04-28T06:19:51.004Z,12.50
2023-04-28T06:20:51.016Z,13.00
2023-04-28T06:21:51.016Z,13.40
2023-04-28T06:22:50.976Z,12.20
2023-04-28T06:23:50.965Z,12.00
2023-04-28T06:24:50.950Z,13.10
2023-04-28T06:25:50.950Z,14.60
2023-04-28T06:26:50.950Z,12.80
2023-04-28T06:27:50.931Z,12.00
2023-04-28T06:28:50.913Z,13.00
2023-04-28T06:29:50.914Z,13.50
2023-04-28T06:30:50.895Z,12.60
2023-04-28T06:31:50.979Z,13.10
2023-04-28T06:32:50.942Z,12.20
2023-04-28T06:33:50.857Z,12.00
2023-04-28T06:34:50.885Z,13.50
2023-04-28T06:35:50.833Z,12.60
2023-04-28T06:36:50.877Z,12.10
2023-04-28T06:37:50.829Z,13.20
2023-04-28T06:38:50.800Z,14.20
2023-04-28T06:39:50.784Z,11.90
2023-04-28T06:40:50.794Z,13.20
2023-04-28T06:41:50.769Z,14.00
2023-04-28T06:42:50.829Z,12.90
2023-04-28T06:43:50.747Z,12.50
2023-04-28T06:44:50.739Z,13.60
2023-04-28T06:45:50.742Z,12.30
2023-04-28T06:46:50.787Z,12.70
2023-04-28T06:47:50.718Z,12.50
2023-04-28T06:48:50.896Z,12.80
2023-04-28T06:49:50.681Z,11.70
2023-04-28T06:50:50.742Z,11.50
2023-04-28T06:51:50.712Z,13.20
2023-04-28T06:52:50.657Z,12.40
2023-04-28T06:53:50.638Z,11.90
2023-04-28T06:54:50.624Z,12.30
2023-04-28T06:55:50.624Z,12.30
2023-04-28T06:56:50.634Z,11.50
2023-04-28T06:57:50.592Z,12.10
2023-04-28T06:58:50.591Z,12.00
2023-04-28T06:59:50.575Z,11.80
2023-04-28T07:00:50.569Z,11.80
2023-04-28T07:01:50.650Z,12.10
2023-04-28T07:02:50.741Z,11.70
2023-04-28T07:03:50.648Z,12.20
2023-04-28T07:04:50.517Z,12.10
2023-04-28T07:05:50.511Z,11.70
2023-04-28T07:06:50.536Z,12.30
2023-04-28T07:07:50.494Z,13.10
2023-04-28T07:08:50.575Z,11.80
2023-04-28T07:09:50.461Z,12.10
2023-04-28T07:10:50.454Z,11.80
2023-04-28T07:11:50.475Z,13.10
2023-04-28T07:12:50.486Z,12.00
2023-04-28T07:13:50.426Z,12.30
2023-04-28T07:14:50.415Z,12.10
2023-04-28T07:15:50.406Z,11.60
2023-04-28T07:16:50.487Z,12.10
2023-04-28T07:17:50.500Z,11.70
2023-04-28T07:18:50.372Z,12.30
2023-04-28T07:19:50.358Z,11.60
2023-04-28T07:20:50.353Z,12.60
2023-04-28T07:21:50.377Z,11.60
2023-04-28T07:22:50.345Z,11.30
2023-04-28T07:23:50.313Z,12.30
2023-04-28T07:24:50.328Z,11.40
2023-04-28T07:25:50.316Z,11.40
2023-04-28T07:26:50.297Z,13.30
2023-04-28T07:27:50.286Z,11.20
2023-04-28T07:28:50.262Z,11.80
2023-04-28T07:29:50.264Z,11.70
2023-04-28T07:30:50.254Z,11.50
2023-04-28T07:31:50.272Z,11.80
2023-04-28T07:32:50.273Z,11.50
2023-04-28T07:33:50.290Z,11.50
2023-04-28T07:34:50.200Z,13.30
2023-04-28T07:35:50.222Z,13.30
2023-04-28T07:36:50.175Z,12.60
2023-04-28T07:37:50.178Z,11.70
2023-04-28T07:38:50.165Z,12.10
2023-04-28T07:39:50.172Z,11.50
2023-04-28T07:41:50.127Z,11.40
2023-04-28T07:42:50.112Z,11.50
2023-04-28T07:43:50.102Z,11.80
2023-04-28T07:44:50.090Z,12.30
2023-04-28T07:45:50.204Z,11.50
2023-04-28T07:46:52.094Z,11.30
2023-04-28T07:47:50.105Z,11.90
2023-04-28T07:48:50.054Z,11.30
2023-04-28T07:49:50.064Z,11.30
2023-04-28T07:50:50.047Z,11.30
2023-04-28T07:51:50.009Z,11.40
2023-04-28T07:52:50.009Z,11.30
2023-04-28T07:53:49.989Z,11.80
2023-04-28T07:54:49.987Z,11.60
2023-04-28T07:55:49.985Z,11.30
2023-04-28T07:56:49.962Z,11.60
2023-04-28T07:57:49.943Z,11.60
2023-04-28T07:58:49.949Z,11.70
2023-04-28T07:59:49.926Z,11.90
2023-04-28T08:00:49.937Z,12.30
2023-04-28T08:01:49.904Z,12.20
2023-04-28T08:02:50.060Z,11.60
2023-04-28T08:03:50.103Z,11.40
2023-04-28T08:04:50.027Z,13.00
2023-04-28T08:05:49.944Z,11.60
2023-04-28T08:06:49.894Z,12.10
2023-04-28T08:07:49.845Z,13.30
2023-04-28T08:08:49.832Z,12.00
2023-04-28T08:09:51.538Z,12.30
2023-04-28T08:10:49.818Z,12.60
2023-04-28T08:11:49.801Z,12.00
2023-04-28T08:12:49.784Z,11.60
2023-04-28T08:13:49.782Z,12.00
2023-04-28T08:14:49.771Z,11.90
2023-04-28T08:15:49.884Z,13.60
2023-04-28T08:16:49.750Z,12.50
2023-04-28T08:17:49.778Z,11.90
2023-04-28T08:18:49.757Z,11.30
2023-04-28T08:19:49.706Z,12.50
2023-04-28T08:20:49.707Z,11.70
2023-04-28T08:21:49.697Z,12.20
2023-04-28T08:22:49.673Z,12.30
2023-04-28T08:23:49.683Z,13.30
2023-04-28T08:24:49.648Z,11.70
2023-04-28T08:25:49.692Z,11.70
2023-04-28T08:26:49.629Z,11.60
2023-04-28T08:27:49.624Z,11.90
2023-04-28T08:28:49.603Z,12.50
2023-04-28T08:29:49.593Z,13.40
2023-04-28T08:30:49.593Z,13.20
2023-04-28T08:31:49.648Z,12.10
2023-04-28T08:32:49.623Z,13.10
2023-04-28T08:33:49.549Z,13.40
2023-04-28T08:34:49.553Z,11.50
2023-04-28T08:35:49.547Z,12.10
2023-04-28T08:36:49.526Z,13.00
2023-04-28T08:37:49.604Z,12.50
2023-04-28T08:38:49.502Z,12.20
2023-04-28T08:39:49.499Z,12.00
2023-04-28T08:40:49.502Z,14.00
2023-04-28T08:41:49.487Z,12.50
2023-04-28T08:42:49.458Z,12.20
2023-04-28T08:43:49.446Z,12.30
2023-04-28T08:44:49.447Z,12.20
2023-04-28T08:45:49.513Z,12.10
2023-04-28T08:46:49.476Z,12.20
2023-04-28T08:47:49.470Z,12.40
2023-04-28T08:48:49.395Z,11.60
2023-04-28T08:49:49.388Z,12.40
2023-04-28T08:50:49.390Z,12.70
2023-04-28T08:51:49.361Z,12.70
2023-04-28T08:52:49.352Z,12.60
2023-04-28T08:54:14.876Z,11.80
2023-04-28T08:54:50.321Z,12.80
2023-04-28T08:55:49.314Z,11.90
2023-04-28T08:56:49.311Z,11.80
2023-04-28T08:57:49.359Z,12.10
2023-04-28T08:58:49.279Z,12.10
2023-04-28T08:59:49.276Z,13.40
2023-04-28T09:00:49.260Z,11.90
2023-04-28T09:01:49.359Z,12.30
2023-04-28T09:02:49.362Z,12.40
2023-04-28T09:03:49.538Z,12.90
2023-04-28T09:04:49.432Z,14.30
2023-04-28T09:05:49.296Z,12.50
2023-04-28T09:06:49.400Z,11.90
2023-04-28T09:07:49.186Z,12.40
2023-04-28T09:08:49.166Z,12.10
2023-04-28T09:09:49.184Z,12.30
2023-04-28T09:10:49.156Z,13.10
2023-04-28T09:11:49.246Z,12.30
2023-04-28T09:12:49.149Z,12.30
2023-04-28T09:13:49.125Z,11.90
2023-04-28T09:14:49.103Z,12.20
2023-04-28T09:15:49.090Z,12.90
2023-04-28T09:16:49.429Z,12.60
2023-04-28T09:17:49.107Z,12.70
2023-04-28T09:18:49.056Z,12.50
2023-04-28T09:19:49.051Z,12.70
2023-04-28T09:20:49.039Z,11.80
2023-04-28T09:21:49.087Z,12.40
2023-04-28T09:22:49.061Z,12.80
2023-04-28T09:23:49.014Z,12.60
2023-04-28T09:24:49.002Z,11.70
2023-04-28T09:25:49.044Z,12.00
2023-04-28T09:26:48.997Z,12.00
2023-04-28T09:27:48.965Z,11.70
2023-04-28T09:28:48.971Z,12.10
2023-04-28T09:29:48.969Z,12.40
2023-04-28T09:30:48.934Z,13.20
2023-04-28T09:31:49.105Z,11.40
2023-04-28T09:32:48.951Z,11.60
2023-04-28T09:33:48.899Z,12.50
2023-04-28T09:34:48.890Z,11.50
2023-04-28T09:35:48.880Z,12.70
2023-04-28T09:36:48.888Z,12.80
2023-04-28T09:37:48.860Z,12.00
2023-04-28T09:38:48.899Z,11.70
2023-04-28T09:39:48.835Z,12.80
2023-04-28T09:40:48.870Z,12.20
2023-04-28T09:41:48.869Z,12.00
2023-04-28T09:42:48.844Z,13.20
2023-04-28T09:43:48.815Z,11.90
2023-04-28T09:44:48.788Z,12.10
2023-04-28T09:45:48.805Z,12.10
2023-04-28T09:46:48.795Z,14.00
2023-04-28T09:47:48.803Z,12.20
2023-04-28T09:48:48.767Z,12.70
2023-04-28T09:49:48.733Z,12.20
2023-04-28T09:50:48.719Z,12.40
2023-04-28T09:51:48.743Z,13.20
2023-04-28T09:52:48.696Z,12.80
2023-04-28T09:53:48.684Z,12.20
2023-04-28T09:54:48.680Z,12.70
2023-04-28T09:55:48.776Z,12.20
2023-04-28T09:56:48.648Z,12.80
2023-04-28T09:57:50.101Z,12.40
2023-04-28T09:58:48.637Z,12.10
2023-04-28T09:59:48.617Z,12.60
2023-04-28T10:00:48.616Z,12.50
2023-04-28T10:01:48.642Z,12.40
2023-04-28T10:02:48.698Z,12.70
2023-04-28T10:03:48.667Z,12.40
2023-04-28T10:04:48.704Z,13.40
2023-04-28T10:05:48.651Z,12.30
2023-04-28T10:06:48.553Z,13.10
2023-04-28T10:07:48.541Z,12.00
2023-04-28T10:08:48.524Z,12.00
2023-04-28T10:09:48.505Z,12.10
2023-04-28T10:10:48.508Z,12.60
2023-04-28T10:11:48.493Z,13.30
2023-04-28T10:12:48.487Z,13.10
2023-04-28T10:13:48.480Z,12.50
2023-04-28T10:14:48.447Z,13.30
2023-04-28T10:15:49.505Z,13.50
2023-04-28T10:16:48.430Z,12.10
2023-04-28T10:17:48.449Z,11.70
2023-04-28T10:18:48.419Z,12.00
2023-04-28T10:19:48.401Z,12.40
2023-04-28T10:20:48.417Z,12.60
2023-04-28T10:21:49.418Z,12.50
2023-04-28T10:22:48.364Z,12.50
2023-04-28T10:23:48.366Z,12.70
2023-04-28T10:24:48.336Z,13.50
2023-04-28T10:25:48.392Z,11.80
2023-04-28T10:26:48.375Z,12.70
2023-04-28T10:27:48.305Z,13.50
2023-04-28T10:28:48.300Z,12.90
2023-04-28T10:29:48.303Z,12.40
2023-04-28T10:30:48.288Z,11.80
2023-04-28T10:31:48.360Z,12.60
2023-04-28T10:32:48.351Z,11.50
2023-04-28T10:33:48.254Z,12.20
2023-04-28T10:34:48.234Z,12.60
2023-04-28T10:35:48.272Z,13.60
2023-04-28T10:36:48.220Z,12.40
2023-04-28T10:37:48.204Z,12.30
2023-04-28T10:38:48.187Z,12.50
2023-04-28T10:39:48.183Z,13.20
2023-04-28T10:40:48.242Z,13.50
2023-04-28T10:41:48.192Z,13.30
2023-04-28T10:42:48.150Z,13.20
2023-04-28T10:43:48.140Z,13.20
2023-04-28T10:44:48.132Z,13.90
2023-04-28T10:45:48.191Z,13.00
2023-04-28T10:46:48.142Z,11.70
2023-04-28T10:47:55.925Z,12.70
2023-04-28T10:48:48.083Z,13.10
2023-04-28T10:49:48.087Z,11.60
2023-04-28T10:50:49.139Z,13.70
2023-04-28T10:51:48.045Z,11.80
2023-04-28T10:52:48.036Z,12.30
2023-04-28T10:53:48.040Z,13.10
2023-04-28T10:54:48.020Z,12.10
2023-04-28T10:55:48.046Z,12.20
2023-04-28T10:56:47.994Z,12.20
2023-04-28T10:57:47.999Z,12.70
2023-04-28T10:58:47.977Z,12.30
2023-04-28T10:59:47.972Z,12.20
2023-04-28T11:00:47.970Z,12.20
2023-04-28T11:01:48.048Z,12.10
2023-04-28T11:02:48.071Z,12.30
2023-04-28T11:03:48.127Z,12.80
2023-04-28T11:04:48.132Z,12.30
2023-04-28T11:05:47.999Z,13.00
2023-04-28T11:06:47.885Z,12.50
2023-04-28T11:07:47.938Z,11.30
2023-04-28T11:08:47.862Z,13.00
2023-04-28T11:09:47.853Z,12.00
2023-04-28T11:10:47.887Z,11.70
2023-04-28T11:11:47.830Z,12.60
2023-04-28T11:12:47.879Z,11.80
2023-04-28T11:13:47.820Z,11.40
2023-04-28T11:14:47.795Z,11.40
2023-04-28T11:15:47.849Z,11.60
2023-04-28T11:16:47.821Z,12.30
2023-04-28T11:17:47.833Z,12.10
2023-04-28T11:18:47.762Z,12.00
2023-04-28T11:19:47.745Z,11.60
2023-04-28T11:20:47.753Z,11.60
2023-04-28T11:21:47.720Z,12.40
2023-04-28T11:22:47.707Z,11.10
2023-04-28T11:23:47.699Z,12.30
2023-04-28T11:24:47.686Z,11.50
2023-04-28T11:25:47.682Z,11.90
2023-04-28T11:26:47.767Z,12.50
2023-04-28T11:27:47.668Z,13.30
2023-04-28T11:28:47.671Z,12.00
2023-04-28T11:29:47.662Z,11.40
2023-04-28T11:30:47.628Z,12.40
2023-04-28T11:31:47.725Z,11.60
2023-04-28T11:32:47.615Z,12.00
2023-04-28T11:33:47.606Z,13.20
2023-04-28T11:34:47.587Z,12.30
2023-04-28T11:35:47.569Z,11.60
2023-04-28T11:36:47.566Z,11.70
2023-04-28T11:37:47.543Z,12.00
2023-04-28T11:38:47.536Z,12.40
2023-04-28T11:39:47.524Z,11.90
2023-04-28T11:40:47.512Z,12.90
2023-04-28T11:41:47.525Z,13.00
2023-04-28T11:42:47.489Z,12.20
2023-04-28T11:43:47.905Z,12.20
2023-04-28T11:44:47.470Z,12.20
2023-04-28T11:45:47.502Z,11.50
2023-04-28T11:46:47.509Z,11.80
2023-04-28T11:47:47.465Z,11.70
2023-04-28T11:48:47.434Z,11.40
2023-04-28T11:49:47.436Z,10.90
2023-04-28T11:50:47.405Z,11.60
2023-04-28T11:51:47.418Z,12.00
2023-04-28T11:52:47.408Z,11.40
2023-04-28T11:53:47.373Z,11.40
2023-04-28T11:54:47.376Z,11.40
2023-04-28T11:55:47.350Z,11.40
2023-04-28T11:56:47.352Z,12.60
2023-04-28T11:57:47.377Z,12.10
2023-04-28T11:58:47.320Z,11.40
2023-04-28T11:59:47.673Z,12.20
2023-04-28T12:00:47.295Z,12.90
2023-04-28T12:01:47.301Z,11.40
2023-04-28T12:02:47.516Z,11.60
2023-04-28T12:03:47.415Z,12.40
2023-04-28T12:04:47.254Z,11.90
2023-04-28T12:05:47.345Z,12.00
2023-04-28T12:06:47.256Z,11.90
2023-04-28T12:07:47.225Z,11.60
2023-04-28T12:08:47.240Z,11.40
2023-04-28T12:09:47.199Z,11.70
2023-04-28T12:10:47.186Z,12.00
2023-04-28T12:11:47.210Z,11.40
2023-04-28T12:12:51.966Z,11.60
2023-04-28T12:13:48.160Z,12.40
2023-04-28T12:14:47.144Z,12.00
2023-04-28T12:15:47.186Z,12.10
2023-04-28T12:16:47.169Z,12.20
2023-04-28T12:17:47.183Z,12.90
2023-04-28T12:18:47.102Z,13.20
2023-04-28T12:19:47.088Z,11.20
2023-04-28T12:20:47.086Z,11.60
2023-04-28T12:21:47.125Z,13.40
2023-04-28T12:22:47.054Z,12.80
2023-04-28T12:23:47.308Z,11.90
2023-04-28T12:24:47.045Z,11.10
2023-04-28T12:25:47.047Z,12.90
2023-04-28T12:26:47.029Z,11.40
2023-04-28T12:27:47.000Z,11.50
2023-04-28T12:28:46.992Z,12.00
2023-04-28T12:29:47.248Z,12.10
2023-04-28T12:30:46.971Z,11.60
2023-04-28T12:31:47.041Z,13.40
2023-04-28T12:32:47.027Z,12.10
2023-04-28T12:33:46.937Z,11.50
2023-04-28T12:34:46.940Z,12.10
2023-04-28T12:35:46.916Z,12.20
2023-04-28T12:36:46.952Z,11.80
2023-04-28T12:37:46.914Z,11.30
2023-04-28T12:38:46.885Z,11.80
2023-04-28T12:39:47.140Z,11.80
2023-04-28T12:40:46.865Z,11.30
2023-04-28T12:41:46.877Z,12.10
2023-04-28T12:42:46.842Z,11.70
2023-04-28T12:43:46.830Z,11.10
2023-04-28T12:44:46.823Z,11.90
2023-04-28T12:45:46.827Z,12.50
2023-04-28T12:46:46.812Z,11.40
2023-04-28T12:47:46.816Z,11.50
2023-04-28T12:48:46.779Z,11.50
2023-04-28T12:49:46.859Z,11.40
2023-04-28T12:50:46.787Z,11.40
2023-04-28T12:51:46.749Z,12.00
2023-04-28T12:52:46.737Z,13.30
2023-04-28T12:53:46.736Z,13.20